Time;durP1;ratioP1;P1;durP2;ratioP2;P2;SDS_P1;SDS_P2;PMS_P1;PMS_P2;Temp;Humidity;BMP_temperature;BMP_pressure;BME280_temperature;BME280_humidity;BME280_pressure;Samples;Min_cycle;Max_cycle;Signal;HPM_P1;HPM_P2
2023/11/17 00:00:35;;;;;;;3.88;1.45;;;;;;;13.20;45.85;99013.72;4973555;28;20117;-80
2023/11/17 00:03:00;;;;;;;2.95;1.10;;;;;;;13.22;45.55;99014.44;4956242;28;20027;-79
2023/11/17 00:05:26;;;;;;;2.75;0.90;;;;;;;13.29;45.52;99027.88;4972887;28;20089;-80
2023/11/17 00:07:52;;;;;;;2.60;1.15;;;;;;;13.31;45.59;99024.13;4972138;28;20426;-81
2023/11/17 00:10:17;;;;;;;2.40;1.00;;;;;;;13.30;45.68;99019.03;4972429;28;20492;-80
2023/11/17 00:12:43;;;;;;;4.03;1.33;;;;;;;13.34;45.43;99020.47;4972695;28;20134;-80
2023/11/17 00:15:12;;;;;;;1.83;1.08;;;;;;;13.32;45.39;99007.47;4973477;28;20105;-80
2023/11/17 00:17:37;;;;;;;6.25;1.40;;;;;;;13.33;45.54;99003.06;4976059;28;20368;-80
2023/11/17 00:20:03;;;;;;;2.53;1.20;;;;;;;13.36;45.55;99008.91;4976127;28;20105;-80
2023/11/17 00:22:28;;;;;;;2.17;1.02;;;;;;;13.39;45.34;99010.44;4959954;28;20065;-80
2023/11/17 00:24:54;;;;;;;4.63;1.13;;;;;;;13.38;45.47;99011.41;4976287;28;20054;-80
2023/11/17 00:27:20;;;;;;;2.38;0.82;;;;;;;13.38;45.04;99014.03;4976426;28;20093;-80
2023/11/17 00:29:48;;;;;;;5.13;1.30;;;;;;;13.42;45.19;99022.47;4976486;28;20046;-79
2023/11/17 00:32:14;;;;;;;2.13;0.90;;;;;;;13.43;45.13;99014.47;4976016;28;20031;-79
2023/11/17 00:34:39;;;;;;;2.75;1.10;;;;;;;13.43;44.99;99017.09;4975987;28;20030;-79
2023/11/17 00:37:07;;;;;;;2.10;1.00;;;;;;;13.42;45.28;98996.25;4959752;28;20035;-79
2023/11/17 00:39:33;;;;;;;3.93;1.37;;;;;;;13.44;45.45;98996.94;4960589;28;20130;-79
2023/11/17 00:41:59;;;;;;;1.40;0.70;;;;;;;13.43;45.37;98993.50;4975829;28;20290;-79
2023/11/17 00:44:24;;;;;;;4.07;1.00;;;;;;;13.35;45.26;98981.03;4976212;28;20064;-79
2023/11/17 00:46:50;;;;;;;2.65;1.20;;;;;;;13.40;45.10;98993.75;4976001;28;20038;-79
2023/11/17 00:49:15;;;;;;;2.33;1.13;;;;;;;13.33;45.17;98984.72;4976217;28;20097;-80
2023/11/17 00:51:41;;;;;;;3.08;1.13;;;;;;;13.35;44.93;99001.19;4991915;28;20027;-79
2023/11/17 00:54:07;;;;;;;2.03;1.00;;;;;;;13.31;44.86;98984.81;4975761;28;20046;-79
2023/11/17 00:56:33;;;;;;;3.20;1.30;;;;;;;13.30;45.25;98998.06;4975655;28;20023;-79
2023/11/17 00:58:59;;;;;;;2.63;1.02;;;;;;;13.27;44.95;98999.16;4975550;28;20143;-79
2023/11/17 01:01:24;;;;;;;4.18;1.20;;;;;;;13.24;45.18;98986.31;4975796;28;20113;-80
2023/11/17 01:03:50;;;;;;;3.67;1.30;;;;;;;13.21;44.85;98976.91;4959846;28;20046;-80
2023/11/17 01:06:15;;;;;;;3.30;1.40;;;;;;;13.20;45.16;98967.38;4959143;28;20457;-80
2023/11/17 01:08:41;;;;;;;4.90;1.60;;;;;;;13.21;44.93;98963.78;4975848;28;20035;-80
2023/11/17 01:11:09;;;;;;;3.72;1.60;;;;;;;13.15;44.85;98948.56;4959112;28;20090;-80
2023/11/17 01:13:34;;;;;;;4.30;1.90;;;;;;;13.14;44.48;98951.31;4975161;28;20496;-80
2023/11/17 01:16:00;;;;;;;2.95;1.50;;;;;;;13.16;44.54;98946.81;4975490;28;20034;-80
2023/11/17 01:18:25;;;;;;;5.05;1.70;;;;;;;13.12;45.04;98943.59;4976731;28;20035;-80
2023/11/17 01:20:50;;;;;;;2.42;1.23;;;;;;;13.05;44.58;98929.34;4974942;28;20051;-80
2023/11/17 01:23:16;;;;;;;3.33;1.40;;;;;;;13.03;45.03;98926.84;4991330;28;20029;-80
2023/11/17 01:25:41;;;;;;;2.78;1.58;;;;;;;13.03;44.92;98926.03;4959369;28;20100;-80
2023/11/17 01:28:08;;;;;;;3.17;1.50;;;;;;;13.03;44.96;98932.09;4975056;28;20031;-80
2023/11/17 01:30:34;;;;;;;3.33;1.40;;;;;;;12.99;44.89;98928.06;4975093;28;20437;-80
2023/11/17 01:33:00;;;;;;;3.95;1.63;;;;;;;13.04;44.91;98930.28;4975186;28;20027;-80
2023/11/17 01:35:27;;;;;;;5.70;1.65;;;;;;;12.98;44.87;98926.41;4975071;28;20038;-80
2023/11/17 01:37:53;;;;;;;3.28;1.45;;;;;;;13.01;44.77;98933.16;4974865;28;20478;-80
2023/11/17 01:40:20;;;;;;;2.50;1.38;;;;;;;12.97;44.90;98931.78;4975195;28;20537;-79
2023/11/17 01:42:45;;;;;;;6.05;1.80;;;;;;;12.98;44.92;98925.56;4958801;28;20039;-80
2023/11/17 01:45:11;;;;;;;3.00;1.63;;;;;;;12.95;45.02;98920.56;4958656;28;20501;-79
2023/11/17 01:47:39;;;;;;;3.13;1.60;;;;;;;12.98;44.76;98926.41;4991264;28;20031;-79
2023/11/17 01:50:09;;;;;;;3.63;1.50;;;;;;;12.96;44.81;98919.63;4975400;28;20026;-80
2023/11/17 01:52:35;;;;;;;2.65;1.30;;;;;;;13.01;44.94;98926.16;4959702;28;20034;-80
2023/11/17 01:55:05;;;;;;;3.33;1.48;;;;;;;13.01;44.80;98920.06;4974797;28;20069;-80
2023/11/17 01:57:31;;;;;;;2.92;1.48;;;;;;;12.99;45.06;98917.56;4974683;28;20027;-80
2023/11/17 01:59:56;;;;;;;4.00;1.48;;;;;;;13.03;44.63;98921.63;4974675;28;20463;-80
2023/11/17 02:02:22;;;;;;;3.15;1.23;;;;;;;13.05;44.93;98920.66;4974349;28;20027;-80
2023/11/17 02:04:48;;;;;;;2.83;1.33;;;;;;;13.06;44.92;98919.69;4975781;28;20118;-80
2023/11/17 02:07:19;;;;;;;1.92;1.00;;;;;;;13.08;44.70;98905.50;4958425;28;20418;-80
2023/11/17 02:10:07;;;;;;;2.20;1.38;;;;;;;13.08;44.62;98892.41;4974734;28;20053;-81
2023/11/17 02:12:59;;;;;;;2.50;1.33;;;;;;;13.10;44.85;98895.72;4974445;28;20023;-80
2023/11/17 02:15:26;;;;;;;5.22;1.35;;;;;;;13.11;44.49;98896.53;4958449;28;20114;-80
2023/11/17 02:17:52;;;;;;;2.75;1.38;;;;;;;13.12;44.78;98900.81;4957977;28;20034;-80
2023/11/17 02:20:20;;;;;;;2.83;1.30;;;;;;;13.13;44.25;98900.69;4974391;28;20027;-80
2023/11/17 02:22:49;;;;;;;2.40;1.30;;;;;;;13.14;44.64;98891.88;4974150;28;20051;-80
2023/11/17 02:25:32;;;;;;;5.00;1.40;;;;;;;13.14;44.78;98902.38;4974154;28;20042;-80
2023/11/17 02:28:34;;;;;;;2.92;1.40;;;;;;;13.16;44.79;98895.19;4958852;28;20034;-80
2023/11/17 02:31:16;;;;;;;2.85;1.30;;;;;;;13.14;44.68;98884.03;4974123;28;20394;-80
2023/11/17 02:33:51;;;;;;;2.63;1.50;;;;;;;13.16;44.79;98883.91;4959674;28;20030;-80
2023/11/17 02:36:17;;;;;;;5.40;1.30;;;;;;;13.13;44.80;98871.88;4989547;28;20074;-79
2023/11/17 02:39:36;;;;;;;3.85;1.40;;;;;;;13.16;44.65;98882.09;4957244;28;20057;-79
2023/11/17 02:42:10;;;;;;;4.05;1.17;;;;;;;13.13;44.62;98871.06;4992507;28;20113;-79
2023/11/17 02:44:37;;;;;;;3.08;1.50;;;;;;;13.16;44.90;98870.78;5007854;28;20165;-79
2023/11/17 02:47:03;;;;;;;3.42;1.50;;;;;;;13.17;44.62;98873.28;4975733;28;20048;-79
2023/11/17 02:49:40;;;;;;;4.57;1.30;;;;;;;13.17;44.78;98875.06;4992325;28;20034;-79
2023/11/17 02:52:11;;;;;;;2.95;1.50;;;;;;;13.19;44.69;98868.72;5007340;28;20030;-79
2023/11/17 02:54:37;;;;;;;5.05;1.35;;;;;;;13.20;44.67;98864.31;4975689;28;20070;-79
2023/11/17 02:57:03;;;;;;;2.70;1.60;;;;;;;13.20;44.48;98854.69;4975550;28;20552;-79
2023/11/17 02:59:34;;;;;;;2.55;1.30;;;;;;;13.17;44.60;98844.44;4975464;28;20042;-79
2023/11/17 03:02:02;;;;;;;2.95;1.52;;;;;;;13.14;44.53;98825.50;4975594;28;20030;-80
2023/11/17 03:04:27;;;;;;;2.78;1.52;;;;;;;13.20;44.30;98838.94;4959402;28;20034;-79
2023/11/17 03:06:53;;;;;;;4.10;1.60;;;;;;;13.21;44.49;98834.53;4975554;28;20038;-80
2023/11/17 03:09:22;;;;;;;3.90;1.50;;;;;;;13.23;44.29;98832.59;4991664;28;20053;-80
2023/11/17 03:11:51;;;;;;;3.45;1.30;;;;;;;13.23;44.23;98831.78;4972653;28;20105;-80
2023/11/17 03:14:17;;;;;;;2.60;1.45;;;;;;;13.24;44.34;98820.34;4972991;28;20046;-80
2023/11/17 03:16:42;;;;;;;2.67;1.45;;;;;;;13.23;44.60;98814.25;4973291;28;20490;-80
2023/11/17 03:19:10;;;;;;;2.97;1.48;;;;;;;13.24;44.41;98809.84;4974492;28;20045;-80
2023/11/17 03:21:42;;;;;;;2.70;1.45;;;;;;;13.21;44.58;98801.28;4972947;28;20061;-80
2023/11/17 03:24:21;;;;;;;3.10;1.40;;;;;;;13.26;44.53;98818.41;4988768;28;20102;-80
2023/11/17 03:26:50;;;;;;;3.03;1.40;;;;;;;13.20;44.16;98812.72;4988929;28;20034;-79
2023/11/17 03:29:15;;;;;;;2.58;1.35;;;;;;;13.26;44.51;98818.41;4957290;28;20039;-80
2023/11/17 03:31:48;;;;;;;3.00;1.50;;;;;;;13.26;44.40;98821.03;4973938;28;20062;-79
2023/11/17 03:34:29;;;;;;;2.22;1.50;;;;;;;13.19;44.29;98805.81;4956903;28;20031;-80
2023/11/17 03:37:00;;;;;;;3.03;1.35;;;;;;;13.16;44.67;98813.94;4972828;28;20034;-80
2023/11/17 03:39:33;;;;;;;2.63;1.52;;;;;;;13.18;44.51;98809.41;4988390;28;20475;-79
2023/11/17 03:41:59;;;;;;;2.60;1.40;;;;;;;13.18;44.49;98800.72;4989306;28;20042;-80
2023/11/17 03:44:25;;;;;;;4.15;1.70;;;;;;;13.15;44.48;98799.16;4973107;28;20033;-79
2023/11/17 03:46:51;;;;;;;3.13;1.50;;;;;;;13.10;44.59;98792.69;4956735;28;20118;-79
2023/11/17 03:49:20;;;;;;;3.90;2.03;;;;;;;13.10;44.57;98808.41;4956062;28;20490;-79
2023/11/17 03:51:46;;;;;;;5.18;1.30;;;;;;;13.08;44.56;98812.94;4972364;28;20031;-80
2023/11/17 03:54:11;;;;;;;4.13;1.40;;;;;;;13.11;44.63;98812.66;4956587;28;20023;-80
2023/11/17 03:56:37;;;;;;;3.28;1.55;;;;;;;13.07;44.26;98806.88;4972350;28;20078;-79
2023/11/17 03:59:04;;;;;;;2.13;1.10;;;;;;;13.08;44.56;98798.06;4972804;28;20027;-80
2023/11/17 04:01:33;;;;;;;2.55;1.30;;;;;;;13.09;44.68;98794.44;4972373;28;20082;-80
2023/11/17 04:03:59;;;;;;;2.90;1.40;;;;;;;13.08;44.40;98792.81;4972487;28;20113;-80
2023/11/17 04:06:24;;;;;;;3.35;1.45;;;;;;;13.05;44.70;98787.00;4956223;28;20030;-80
2023/11/17 04:08:50;;;;;;;3.28;1.35;;;;;;;13.01;44.64;98784.66;4956277;28;20034;-80
2023/11/17 04:11:16;;;;;;;5.13;1.73;;;;;;;13.02;44.81;98791.53;4988527;28;20402;-81
2023/11/17 04:13:42;;;;;;;5.13;1.35;;;;;;;13.05;44.60;98790.47;4972604;28;20093;-80
2023/11/17 04:16:10;;;;;;;4.05;1.40;;;;;;;12.98;44.83;98779.69;4972306;28;20117;-81
2023/11/17 04:18:37;;;;;;;5.22;1.58;;;;;;;13.03;44.72;98785.34;4972371;28;20034;-81
2023/11/17 04:21:05;;;;;;;3.17;1.50;;;;;;;12.98;44.53;98779.69;4972315;28;20046;-82
2023/11/17 04:23:31;;;;;;;3.97;1.40;;;;;;;13.01;44.72;98789.03;4988624;28;20085;-80
2023/11/17 04:25:56;;;;;;;4.13;1.27;;;;;;;13.01;44.65;98778.56;4973282;28;20035;-77
2023/11/17 04:28:22;;;;;;;3.50;1.42;;;;;;;12.95;44.68;98766.84;4973383;28;20029;-77
2023/11/17 04:30:47;;;;;;;4.95;1.63;;;;;;;12.98;44.98;98774.44;4956003;28;20125;-77
2023/11/17 04:33:14;;;;;;;4.15;1.55;;;;;;;12.94;44.77;98765.16;4972222;28;20135;-77
2023/11/17 04:35:39;;;;;;;3.80;1.30;;;;;;;12.91;44.91;98759.38;4972014;28;20081;-77
2023/11/17 04:38:05;;;;;;;3.10;1.30;;;;;;;12.96;44.88;98772.91;4956056;28;20023;-78
2023/11/17 04:40:33;;;;;;;2.47;1.02;;;;;;;12.96;44.92;98776.34;4956039;28;20050;-77
2023/11/17 04:43:00;;;;;;;3.35;1.30;;;;;;;12.95;44.92;98766.84;4971969;28;20046;-77
2023/11/17 04:45:26;;;;;;;5.03;1.65;;;;;;;12.92;45.12;98761.00;4971959;28;20094;-79
2023/11/17 04:47:51;;;;;;;2.47;1.15;;;;;;;12.91;45.29;98748.88;4972110;28;20030;-79
2023/11/17 04:50:17;;;;;;;3.38;1.25;;;;;;;12.95;45.09;98755.50;4955482;28;20487;-79
2023/11/17 04:52:43;;;;;;;3.75;1.20;;;;;;;12.94;45.26;98757.31;4971739;28;20227;-77
2023/11/17 04:55:13;;;;;;;2.72;1.38;;;;;;;12.89;45.23;98742.94;4972108;28;20117;-77
2023/11/17 04:57:39;;;;;;;2.30;1.02;;;;;;;12.88;45.05;98731.63;4956679;28;20033;-79
2023/11/17 05:00:06;;;;;;;2.42;1.20;;;;;;;12.92;45.29;98729.56;4955610;28;20043;-78
2023/11/17 05:02:33;;;;;;;4.15;1.33;;;;;;;12.91;44.94;98733.16;4958252;28;20125;-78
2023/11/17 05:04:59;;;;;;;3.55;1.30;;;;;;;12.92;45.02;98721.72;4975231;28;20038;-78
2023/11/17 05:07:25;;;;;;;2.75;1.10;;;;;;;12.94;45.26;98732.91;4975234;28;20033;-78
2023/11/17 05:09:50;;;;;;;2.38;1.02;;;;;;;12.89;45.05;98719.34;4959191;28;20054;-78
2023/11/17 05:12:16;;;;;;;3.78;1.33;;;;;;;12.95;44.92;98730.16;4991315;28;20065;-79
2023/11/17 05:14:43;;;;;;;3.08;1.20;;;;;;;12.87;45.03;98713.41;4975173;28;20057;-80
2023/11/17 05:17:15;;;;;;;2.60;1.20;;;;;;;12.96;45.13;98723.94;4958707;28;20124;-78
2023/11/17 05:19:40;;;;;;;7.97;3.88;;;;;;;12.97;45.16;98728.22;4959691;28;20043;-79
2023/11/17 05:22:06;;;;;;;16.73;8.70;;;;;;;12.97;45.11;98728.22;4974798;28;20422;-79
2023/11/17 05:24:33;;;;;;;22.65;11.70;;;;;;;12.99;45.20;98725.47;4959265;28;20043;-79
2023/11/17 05:26:59;;;;;;;22.67;12.98;;;;;;;12.93;45.17;98713.72;4958987;28;20165;-79
2023/11/17 05:29:24;;;;;;;28.35;15.55;;;;;;;12.97;45.48;98712.50;4975256;28;20621;-80
2023/11/17 05:31:50;;;;;;;28.27;16.00;;;;;;;12.99;45.49;98710.56;4991009;28;20030;-78
2023/11/17 05:34:17;;;;;;;29.33;15.68;;;;;;;12.94;45.59;98704.09;4975092;28;20414;-79
2023/11/17 05:36:43;;;;;;;27.80;14.80;;;;;;;13.00;45.25;98701.75;4974745;28;20061;-78
2023/11/17 05:39:10;;;;;;;26.90;14.57;;;;;;;12.99;45.44;98696.66;4991014;28;20035;-79
2023/11/17 05:41:36;;;;;;;24.55;12.80;;;;;;;12.99;45.37;98688.78;4974777;28;20042;-77
2023/11/17 05:44:02;;;;;;;20.55;11.40;;;;;;;12.95;45.52;98693.47;4990892;28;20030;-77
2023/11/17 05:46:31;;;;;;;19.70;10.93;;;;;;;12.98;45.64;98703.69;4974544;28;20035;-78
2023/11/17 05:48:56;;;;;;;18.50;8.93;;;;;;;12.98;45.67;98694.97;4960568;28;20049;-78
2023/11/17 05:51:22;;;;;;;15.30;8.52;;;;;;;12.96;45.47;98682.00;4958987;28;20051;-78
2023/11/17 05:53:49;;;;;;;15.90;7.85;;;;;;;13.04;45.56;98689.22;4974672;28;20057;-81
2023/11/17 05:56:17;;;;;;;12.88;6.93;;;;;;;13.05;45.50;98698.75;4975768;28;20063;-78
2023/11/17 05:58:43;;;;;;;11.18;6.22;;;;;;;13.02;45.64;98688.53;4958553;28;20041;-79
2023/11/17 06:01:08;;;;;;;11.90;6.18;;;;;;;13.11;45.45;98703.44;4960192;28;20046;-79
2023/11/17 06:03:35;;;;;;;10.50;5.43;;;;;;;13.14;45.75;98707.56;4974351;28;20491;-80
2023/11/17 06:06:02;;;;;;;10.77;4.70;;;;;;;13.14;45.29;98694.47;4990403;28;20042;-79
2023/11/17 06:08:31;;;;;;;7.72;4.45;;;;;;;13.23;45.44;98705.94;4974576;28;20060;-81
2023/11/17 06:10:57;;;;;;;;;;;;;;;13.26;45.15;98693.41;4974971;28;20038;-77
2023/11/17 06:13:24;;;;;;;7.22;3.60;;;;;;;13.24;45.19;98694.50;4989691;28;20296;-80
2023/11/17 06:15:49;;;;;;;6.00;3.42;;;;;;;13.24;45.18;98690.09;4974380;28;20414;-78
2023/11/17 06:18:16;;;;;;;6.53;3.30;;;;;;;13.29;44.94;98693.13;4957967;28;20132;-78
2023/11/17 06:20:42;;;;;;;8.85;3.20;;;;;;;13.35;45.24;98686.56;4974017;28;20034;-78
2023/11/17 06:23:11;;;;;;;6.05;2.78;;;;;;;13.39;44.81;98674.81;4958033;28;20137;-79
2023/11/17 06:25:36;;;;;;;6.22;2.83;;;;;;;13.46;45.09;98659.38;4974014;28;20039;-78
2023/11/17 06:28:03;;;;;;;4.32;2.75;;;;;;;13.50;44.93;98658.13;4957778;28;20054;-79
2023/11/17 06:30:30;;;;;;;4.30;2.40;;;;;;;13.54;44.33;98649.84;4974217;28;20125;-80
2023/11/17 06:32:56;;;;;;;5.65;2.22;;;;;;;13.66;44.66;98644.47;4957713;28;20039;-80
2023/11/17 06:35:21;;;;;;;4.18;1.92;;;;;;;13.81;44.10;98650.13;4973774;28;20126;-78
2023/11/17 06:37:53;;;;;;;4.15;2.10;;;;;;;14.00;43.60;98633.53;4973881;28;20037;-80
2023/11/17 06:40:21;;;;;;;5.50;2.50;;;;;;;14.90;42.09;98647.03;4957583;28;20125;-79
2023/11/17 06:42:46;;;;;;;4.35;1.75;;;;;;;16.36;40.09;98640.56;4973855;28;20516;-79
2023/11/17 06:45:12;;;;;;;4.43;1.50;;;;;;;17.86;38.46;98638.13;4957382;28;20043;-79
2023/11/17 06:47:40;;;;;;;2.92;1.50;;;;;;;20.03;35.57;98639.44;4974259;28;20039;-79
2023/11/17 06:50:06;;;;;;;5.65;1.50;;;;;;;21.60;33.76;98633.03;4957284;28;20038;-80
2023/11/17 06:52:31;;;;;;;4.20;1.40;;;;;;;22.90;31.98;98621.00;4957640;28;20453;-78
2023/11/17 06:54:57;;;;;;;5.55;1.52;;;;;;;23.10;32.00;98618.44;4973538;28;20050;-78
2023/11/17 06:57:22;;;;;;;3.22;1.70;;;;;;;22.98;31.36;98633.31;4973423;28;20023;-78
2023/11/17 06:59:48;;;;;;;8.48;1.60;;;;;;;22.77;31.14;98628.91;4988910;28;20027;-77
2023/11/17 07:02:15;;;;;;;7.13;1.90;;;;;;;22.35;30.76;98628.91;4973408;28;20517;-77
2023/11/17 07:04:40;;;;;;;10.40;1.70;;;;;;;;;;4956992;28;20031;-77
2023/11/17 07:07:06;;;;;;;5.68;1.83;;;;;;;22.18;30.01;98623.06;4973289;28;20039;-79
2023/11/17 07:09:36;;;;;;;3.28;1.60;;;;;;;21.75;30.43;98615.19;4957018;28;20089;-77
2023/11/17 07:12:02;;;;;;;4.72;1.75;;;;;;;21.30;30.64;98602.09;4973528;28;20609;-77
2023/11/17 07:14:30;;;;;;;5.15;1.77;;;;;;;20.89;30.44;98600.06;4973165;28;20113;-79
2023/11/17 07:16:56;;;;;;;3.38;1.45;;;;;;;20.49;30.50;98583.59;4972608;28;20026;-77
2023/11/17 07:19:21;;;;;;;6.00;1.58;;;;;;;20.08;30.84;98586.72;4989342;28;20406;-79
2023/11/17 07:21:48;;;;;;;6.15;1.40;;;;;;;19.74;31.25;98597.81;4989060;28;20051;-79
2023/11/17 07:24:15;;;;;;;3.17;1.42;;;;;;;19.41;31.62;98613.97;4972663;28;20040;-79
2023/11/17 07:26:43;;;;;;;3.55;1.65;;;;;;;19.12;31.91;98623.41;4973550;28;20101;-79
2023/11/17 07:29:09;;;;;;;4.35;1.60;;;;;;;18.84;32.19;98610.66;4973513;28;20121;-78
2023/11/17 07:31:37;;;;;;;3.05;1.67;;;;;;;18.56;32.56;98610.25;4974390;28;20486;-79
2023/11/17 07:34:07;;;;;;;4.85;1.45;;;;;;;18.25;32.88;98598.66;4972969;28;20033;-79
2023/11/17 07:36:38;;;;;;;3.30;1.73;;;;;;;18.08;33.21;98612.88;4988906;28;20027;-79
2023/11/17 07:39:06;;;;;;;4.55;1.77;;;;;;;17.85;33.55;98599.53;4956996;28;20028;-79
2023/11/17 07:41:35;;;;;;;5.55;1.50;;;;;;;17.77;33.86;98616.19;4972583;28;20054;-81
2023/11/17 07:44:02;;;;;;;4.13;1.88;;;;;;;17.67;33.77;98620.81;4972790;28;20033;-81
2023/11/17 07:46:28;;;;;;;4.13;1.90;;;;;;;17.60;34.30;98617.19;4988249;28;20046;-79
2023/11/17 07:48:55;;;;;;;7.32;1.60;;;;;;;17.56;34.34;98621.97;4972466;28;20406;-78
2023/11/17 07:51:21;;;;;;;7.07;1.63;;;;;;;17.47;34.50;98618.53;4972443;28;20035;-78
2023/11/17 07:53:46;;;;;;;5.60;1.60;;;;;;;17.49;34.90;98618.34;4988579;28;20061;-81
2023/11/17 07:56:14;;;;;;;3.60;1.80;;;;;;;17.48;34.94;98608.78;4972407;28;20062;-78
2023/11/17 07:58:41;;;;;;;4.10;1.80;;;;;;;17.58;35.00;98616.53;4972827;28;20030;-80
2023/11/17 08:01:08;;;;;;;6.63;1.75;;;;;;;17.64;35.04;98605.31;4988441;28;20094;-78
2023/11/17 08:03:34;;;;;;;4.55;1.65;;;;;;;17.69;35.08;98600.34;4971768;28;20039;-76
2023/11/17 08:06:02;;;;;;;4.28;1.70;;;;;;;17.76;35.03;98600.50;4956121;28;20093;-76
2023/11/17 08:08:29;;;;;;;4.47;1.92;;;;;;;17.96;35.51;98606.31;4972083;28;20030;-79
2023/11/17 08:10:55;;;;;;;4.43;1.20;;;;;;;18.83;47.83;98598.41;4988315;28;20031;-76
2023/11/17 08:13:23;;;;;;;4.20;0.90;;;;;;;20.21;44.64;98597.53;4971798;28;20034;-78
2023/11/17 08:15:49;;;;;;;3.60;1.25;;;;;;;21.14;41.51;98586.41;4972368;28;20038;-79
2023/11/17 08:18:15;;;;;;;12.48;2.38;;;;;;;22.01;37.98;98568.56;4974074;28;20459;-79
2023/11/17 08:20:41;;;;;;;5.90;2.00;;;;;;;22.25;36.26;98569.09;4974628;28;20035;-80
2023/11/17 08:23:08;;;;;;;5.85;2.00;;;;;;;22.79;33.75;98567.50;4997332;28;20043;-82
2023/11/17 08:25:34;;;;;;;5.23;2.00;;;;;;;23.64;32.10;98573.19;4988686;28;20039;-79
2023/11/17 08:28:06;;;;;;;4.10;1.70;;;;;;;23.87;30.84;98564.00;4989922;28;20360;-87
2023/11/17 08:30:33;;;;;;;6.45;2.10;;;;;;;24.14;29.42;98554.09;4979121;28;20027;-86
2023/11/17 08:33:03;;;;;;;7.20;1.88;;;;;;;24.82;28.31;98558.16;4959358;28;20034;-87
2023/11/17 08:35:29;;;;;;;9.45;2.50;;;;;;;25.48;27.23;98551.59;4979534;28;20479;-89
2023/11/17 08:37:59;;;;;;;5.63;2.42;;;;;;;25.76;25.83;98543.13;4982635;28;20030;-88
2023/11/17 08:40:25;;;;;;;8.57;3.97;;;;;;;26.17;25.27;98536.34;4963985;28;20038;-87
2023/11/17 08:42:52;;;;;;;4.68;2.97;;;;;;;26.66;24.52;98539.06;4983858;28;20094;-90
2023/11/17 08:45:24;;;;;;;5.00;2.83;;;;;;;27.19;23.64;98542.03;4981871;28;20407;-85
2023/11/17 08:47:50;;;;;;;5.82;2.65;;;;;;;27.72;22.70;98532.28;4988172;28;20038;-87
2023/11/17 08:53:27;;;;;;;5.95;2.42;;;;;;;29.56;20.72;98494.72;4985054;28;20070;-87
2023/11/17 08:55:52;;;;;;;4.57;2.30;;;;;;;29.86;19.71;98488.16;4978067;28;20034;-87
2023/11/17 08:58:43;;;;;;;6.28;2.10;;;;;;;29.22;19.94;98486.69;4977560;28;20121;-86
2023/11/17 09:01:09;;;;;;;7.18;2.30;;;;;;;28.39;20.68;98488.94;4979692;28;20031;-83
2023/11/17 09:03:35;;;;;;;5.95;2.10;;;;;;;27.55;21.39;98495.47;4975308;28;20431;-77
2023/11/17 09:06:03;;;;;;;3.70;2.10;;;;;;;26.77;21.83;98499.97;4974939;28;20042;-81
2023/11/17 09:08:29;;;;;;;4.72;2.45;;;;;;;26.03;22.76;98502.75;4975474;28;20425;-79
2023/11/17 09:10:56;;;;;;;5.35;2.00;;;;;;;25.37;23.59;98482.84;4974600;28;20043;-78
2023/11/17 09:13:22;;;;;;;4.30;1.85;;;;;;;24.83;24.24;98487.72;4958006;28;20065;-79
2023/11/17 09:15:48;;;;;;;7.10;2.28;;;;;;;24.38;25.05;98473.38;4942019;28;20034;-76
2023/11/17 09:18:14;;;;;;;5.38;2.00;;;;;;;24.19;25.27;98483.13;4973925;28;20518;-77
2023/11/17 09:20:40;;;;;;;7.85;1.90;;;;;;;25.13;24.81;98471.91;4957615;28;20039;-77
2023/11/17 09:23:06;;;;;;;4.97;1.80;;;;;;;25.21;24.74;98466.28;4974229;28;20129;-78
2023/11/17 09:25:32;;;;;;;3.70;1.92;;;;;;;24.67;26.39;98467.69;4959175;28;20031;-75
2023/11/17 09:27:57;;;;;;;8.80;2.03;;;;;;;24.67;26.00;98467.69;4959537;28;20122;-82
2023/11/17 09:30:24;;;;;;;7.68;2.53;;;;;;;27.18;23.14;98452.78;4975389;28;20558;-80
2023/11/17 09:32:50;;;;;;;5.82;2.05;;;;;;;29.03;20.75;98443.09;4959591;28;20030;-80
2023/11/17 09:35:16;;;;;;;4.45;2.03;;;;;;;29.22;20.38;98435.63;4974752;28;20053;-77
2023/11/17 09:37:46;;;;;;;6.95;2.40;;;;;;;27.87;21.80;98443.34;4957631;28;20043;-78
2023/11/17 09:40:14;;;;;;;5.38;2.00;;;;;;;26.72;22.74;98443.63;4974187;28;20494;-78
2023/11/17 09:42:39;;;;;;;;;;;;;;;25.97;23.80;98437.59;4974870;28;20031;-79
2023/11/17 09:45:06;;;;;;;8.30;3.10;;;;;;;25.34;24.53;98419.16;4973566;28;19917;-78
2023/11/17 09:47:32;;;;;;;6.18;2.53;;;;;;;24.80;25.11;98419.56;4956922;28;20077;-79
2023/11/17 09:49:59;;;;;;;6.90;2.72;;;;;;;24.37;25.76;98414.91;4973471;28;20446;-77
2023/11/17 09:52:24;;;;;;;6.40;3.45;;;;;;;24.00;26.44;98402.19;4958261;28;20042;-78
2023/11/17 09:54:50;;;;;;;5.63;3.15;;;;;;;23.92;26.49;98404.25;4973694;28;20309;-78
2023/11/17 09:57:18;;;;;;;5.95;3.15;;;;;;;23.88;26.81;98395.03;4957501;28;20054;-78
2023/11/17 09:59:44;;;;;;;5.72;3.17;;;;;;;24.00;26.74;98415.50;4973779;28;20054;-79
2023/11/17 10:02:10;;;;;;;9.18;3.20;;;;;;;23.71;27.23;98432.78;4973541;28;20065;-79
2023/11/17 10:04:37;;;;;;;7.65;3.13;;;;;;;23.44;27.74;98424.84;4957273;28;20126;-77
2023/11/17 10:07:03;;;;;;;4.72;1.95;;;;;;;23.74;32.53;98427.03;4973325;28;20406;-75
2023/11/17 10:09:28;;;;;;;10.00;2.05;;;;;;;23.97;32.47;98409.75;4957863;28;20122;-78
2023/11/17 10:11:55;;;;;;;14.70;1.85;;;;;;;23.85;33.51;98406.94;4956989;28;20438;-77
2023/11/17 10:14:26;;;;;;;12.23;1.70;;;;;;;23.82;32.95;98383.34;4957645;28;20525;-78
2023/11/17 10:16:52;;;;;;;4.15;1.80;;;;;;;24.03;32.45;98382.25;4973235;28;20083;-78
2023/11/17 10:19:18;;;;;;;13.07;1.67;;;;;;;24.49;30.51;98386.50;4973359;28;20553;-77
2023/11/17 10:21:46;;;;;;;8.43;2.13;;;;;;;24.90;29.86;98387.03;4972806;28;20050;-77
2023/11/17 10:24:11;;;;;;;7.15;1.73;;;;;;;24.91;30.24;98376.16;4957607;28;20096;-77
2023/11/17 10:26:39;;;;;;;3.35;1.65;;;;;;;25.20;30.40;98375.69;4972853;28;20466;-77
2023/11/17 10:29:06;;;;;;;3.35;1.42;;;;;;;24.93;30.58;98382.06;4956999;28;20155;-76
2023/11/17 10:31:33;;;;;;;2.75;1.50;;;;;;;24.67;29.73;98371.63;4973023;28;20070;-77
2023/11/17 10:34:00;;;;;;;4.75;1.58;;;;;;;24.47;29.25;98361.88;4972935;28;20489;-78
2023/11/17 10:36:25;;;;;;;10.23;1.85;;;;;;;24.34;30.86;98362.00;4973093;28;20038;-79
2023/11/17 10:39:10;;;;;;;4.35;1.40;;;;;;;24.11;31.24;98370.53;4956884;28;20038;-81
2023/11/17 10:41:35;;;;;;;5.00;1.80;;;;;;;23.80;31.23;98359.59;4988414;28;20093;-77
2023/11/17 10:44:02;;;;;;;5.30;1.50;;;;;;;23.51;32.20;98349.44;4972814;28;20038;-77
2023/11/17 10:46:40;;;;;;;4.97;1.80;;;;;;;23.53;32.09;98344.72;4956641;28;20458;-78
2023/11/17 10:49:06;;;;;;;5.93;1.80;;;;;;;23.87;31.37;98342.78;4973180;28;20470;-77
2023/11/17 10:51:32;;;;;;;4.25;1.88;;;;;;;23.85;30.40;98337.66;4973463;28;20039;-78
2023/11/17 10:54:14;;;;;;;7.22;2.03;;;;;;;23.56;30.18;98339.81;4956363;28;20521;-76
2023/11/17 10:56:50;;;;;;;5.18;1.80;;;;;;;23.84;30.85;98330.69;4956858;28;20034;-80
2023/11/17 10:59:18;;;;;;;2.72;1.60;;;;;;;24.05;30.83;98315.41;4972632;28;20030;-76
2023/11/17 11:01:44;;;;;;;4.88;1.65;;;;;;;24.10;30.65;98300.41;4972115;28;20417;-76
2023/11/17 11:04:14;;;;;;;3.75;1.42;;;;;;;24.01;30.44;98302.50;4956186;28;20130;-76
2023/11/17 11:06:42;;;;;;;4.07;1.45;;;;;;;23.85;29.72;98289.69;4957363;28;20106;-76
2023/11/17 11:09:09;;;;;;;2.90;1.58;;;;;;;23.84;29.94;98278.19;4988335;28;20031;-76
2023/11/17 11:11:34;;;;;;;2.53;1.48;;;;;;;23.91;29.77;98272.00;4988137;28;20474;-77
2023/11/17 11:14:01;;;;;;;7.15;1.45;;;;;;;23.62;29.90;98264.34;4972296;28;20027;-76
2023/11/17 11:16:31;;;;;;;4.53;1.88;;;;;;;23.72;30.11;98252.41;4988469;28;20170;-77
2023/11/17 11:18:58;;;;;;;2.85;1.55;;;;;;;23.66;30.54;98262.09;4956357;28;20037;-76
2023/11/17 11:21:29;;;;;;;3.50;1.67;;;;;;;23.30;29.96;98260.81;4956181;28;20057;-80
2023/11/17 11:23:59;;;;;;;3.78;1.60;;;;;;;23.01;30.40;98254.94;4987605;28;20134;-79
2023/11/17 11:26:25;;;;;;;4.50;1.70;;;;;;;22.88;30.41;98247.81;4957005;28;20495;-81
2023/11/17 11:28:52;;;;;;;7.43;1.80;;;;;;;22.56;31.68;98244.97;4955885;28;20078;-78
2023/11/17 11:31:22;;;;;;;4.07;1.80;;;;;;;22.42;31.94;98245.22;4993965;28;20632;-79
2023/11/17 11:33:49;;;;;;;4.25;1.75;;;;;;;22.22;32.29;98230.06;4977685;28;20037;-79
2023/11/17 11:36:15;;;;;;;5.03;1.42;;;;;;;22.27;32.50;98248.06;4977539;28;20116;-79
2023/11/17 11:38:47;;;;;;;3.65;1.63;;;;;;;22.27;32.58;98256.03;4977683;28;20414;-80